createdAt,value
2022-10-07T00:00:10.985Z,2.50
2022-10-07T00:02:43.422Z,2.28
2022-10-07T00:05:17.002Z,3.10
2022-10-07T00:07:49.328Z,2.67
2022-10-07T00:10:21.586Z,2.17
2022-10-07T00:12:53.981Z,2.08
2022-10-07T00:15:26.698Z,2.50
2022-10-07T00:17:59.001Z,2.22
2022-10-07T00:20:36.932Z,2.13
2022-10-07T00:23:09.229Z,2.10
2022-10-07T00:25:41.548Z,2.58
2022-10-07T00:28:13.905Z,2.00
2022-10-07T00:30:46.239Z,2.70
2022-10-07T00:33:18.585Z,2.20
2022-10-07T00:35:51.625Z,2.40
2022-10-07T00:38:23.947Z,3.15
2022-10-07T00:40:56.288Z,2.33
2022-10-07T00:43:30.567Z,2.15
2022-10-07T00:46:07.696Z,2.55
2022-10-07T00:48:41.037Z,2.30
2022-10-07T00:51:16.416Z,2.15
2022-10-07T00:53:52.251Z,2.30
2022-10-07T00:56:27.117Z,2.58
2022-10-07T00:58:59.630Z,2.17
2022-10-07T01:01:34.724Z,2.47
2022-10-07T01:04:11.986Z,2.03
2022-10-07T01:06:45.114Z,2.67
2022-10-07T01:09:20.759Z,2.28
2022-10-07T01:11:59.862Z,2.90
2022-10-07T01:14:45.835Z,2.60
2022-10-07T01:17:22.980Z,2.58
2022-10-07T01:20:28.998Z,2.47
2022-10-07T01:23:19.104Z,2.60
2022-10-07T01:26:03.652Z,2.30
2022-10-07T01:28:41.610Z,2.40
2022-10-07T01:31:17.455Z,2.50
2022-10-07T01:33:54.371Z,2.60
2022-10-07T01:36:28.686Z,3.10
2022-10-07T01:39:07.695Z,2.63
2022-10-07T01:41:40.955Z,2.17
2022-10-07T01:44:14.071Z,2.50
2022-10-07T01:46:47.113Z,2.45
2022-10-07T01:49:19.434Z,2.60
2022-10-07T01:52:08.146Z,2.38
2022-10-07T01:54:50.490Z,2.72
2022-10-07T01:57:32.202Z,2.25
2022-10-07T02:00:11.047Z,2.83
2022-10-07T02:03:17.090Z,2.53
2022-10-07T02:05:59.950Z,2.60
2022-10-07T02:08:36.975Z,2.78
2022-10-07T02:11:15.406Z,2.47
2022-10-07T02:14:00.299Z,3.00
2022-10-07T02:16:41.764Z,2.70
2022-10-07T02:19:17.987Z,2.70
2022-10-07T02:21:53.015Z,3.50
2022-10-07T02:24:29.315Z,2.67
2022-10-07T02:27:07.851Z,3.03
2022-10-07T02:29:42.711Z,3.08
2022-10-07T02:32:20.220Z,3.30
2022-10-07T02:35:18.926Z,3.40
2022-10-07T02:37:55.550Z,3.75
2022-10-07T02:40:33.704Z,3.22
2022-10-07T02:43:11.602Z,2.50
2022-10-07T02:45:47.992Z,3.17
2022-10-07T02:48:26.423Z,2.90
2022-10-07T02:51:03.631Z,2.78
2022-10-07T02:53:38.113Z,2.85
2022-10-07T02:56:11.792Z,2.65
2022-10-07T02:58:46.027Z,2.95
2022-10-07T03:01:24.840Z,3.30
2022-10-07T03:03:58.418Z,2.95
2022-10-07T03:06:30.854Z,2.63
2022-10-07T03:09:06.316Z,2.95
2022-10-07T03:11:39.238Z,3.15
2022-10-07T03:14:12.094Z,3.28
2022-10-07T03:16:44.551Z,3.22
2022-10-07T03:19:17.667Z,3.45
2022-10-07T03:22:01.693Z,3.17
2022-10-07T03:24:36.249Z,3.22
2022-10-07T03:27:08.710Z,3.28
2022-10-07T03:29:43.241Z,3.50
2022-10-07T03:32:16.304Z,3.72
2022-10-07T03:34:49.303Z,3.78
2022-10-07T03:37:21.877Z,2.90
2022-10-07T03:39:54.285Z,3.83
2022-10-07T03:42:27.188Z,3.72
2022-10-07T03:44:59.518Z,2.60
2022-10-07T03:47:32.516Z,3.20
2022-10-07T03:50:06.529Z,3.63
2022-10-07T03:52:38.839Z,4.53
2022-10-07T03:55:11.326Z,3.67
2022-10-07T03:57:57.071Z,3.90
2022-10-07T04:00:32.394Z,3.70
2022-10-07T04:03:06.973Z,3.47
2022-10-07T04:05:40.063Z,3.58
2022-10-07T04:08:17.230Z,3.47
2022-10-07T04:10:50.009Z,2.97
2022-10-07T04:13:22.503Z,3.00
2022-10-07T04:15:55.820Z,3.63
2022-10-07T04:18:28.994Z,4.18
2022-10-07T04:21:02.087Z,3.35
2022-10-07T04:23:37.363Z,4.32
2022-10-07T04:26:11.276Z,3.38
2022-10-07T04:28:48.406Z,4.28
2022-10-07T04:31:24.380Z,3.38
2022-10-07T04:34:10.034Z,3.20
2022-10-07T04:36:47.123Z,4.63
2022-10-07T04:39:33.213Z,3.58
2022-10-07T04:42:29.547Z,3.20
2022-10-07T04:45:09.416Z,3.20
2022-10-07T04:47:44.951Z,3.20
2022-10-07T04:50:17.927Z,3.50
2022-10-07T04:52:54.128Z,2.88
2022-10-07T04:55:27.515Z,2.95
2022-10-07T04:58:00.223Z,2.80
2022-10-07T05:00:33.054Z,3.22
2022-10-07T05:03:05.460Z,4.07
2022-10-07T05:05:41.423Z,4.10
2022-10-07T05:08:15.963Z,2.95
2022-10-07T05:10:48.414Z,2.60
2022-10-07T05:13:21.749Z,2.97
2022-10-07T05:15:56.145Z,2.78
2022-10-07T05:18:30.478Z,2.75
2022-10-07T05:21:08.054Z,2.75
2022-10-07T05:23:45.182Z,2.78
2022-10-07T05:26:22.045Z,2.58
2022-10-07T05:29:00.118Z,2.50
2022-10-07T05:31:40.632Z,2.65
2022-10-07T05:34:13.375Z,2.80
2022-10-07T05:36:46.314Z,2.60
2022-10-07T05:39:19.582Z,2.90
2022-10-07T05:41:58.300Z,2.80
2022-10-07T05:44:37.108Z,2.50
2022-10-07T05:47:10.899Z,2.55
2022-10-07T05:49:43.346Z,2.10
2022-10-07T05:52:15.993Z,2.30
2022-10-07T05:54:51.175Z,2.60
2022-10-07T05:57:24.101Z,2.63
2022-10-07T05:59:58.190Z,2.38
2022-10-07T06:02:30.921Z,2.25
2022-10-07T06:05:04.251Z,2.65
2022-10-07T06:07:37.086Z,3.00
2022-10-07T06:10:29.282Z,2.55
2022-10-07T06:13:07.394Z,2.53
2022-10-07T06:15:40.239Z,2.92
2022-10-07T06:18:13.367Z,2.30
2022-10-07T06:20:53.364Z,2.78
2022-10-07T06:23:26.587Z,2.42
2022-10-07T06:26:01.647Z,3.25
2022-10-07T06:28:36.810Z,2.17
2022-10-07T06:31:11.365Z,2.42
2022-10-07T06:33:43.862Z,2.28
2022-10-07T06:36:16.851Z,2.75
2022-10-07T06:38:53.070Z,2.10
2022-10-07T06:41:30.409Z,2.50
2022-10-07T06:44:27.571Z,2.13
2022-10-07T06:47:01.874Z,2.45
2022-10-07T06:49:34.197Z,2.05
2022-10-07T06:52:06.638Z,2.78
2022-10-07T06:54:39.011Z,2.47
2022-10-07T06:57:40.360Z,2.90
2022-10-07T07:00:05.442Z,2.85
2022-10-07T07:02:38.872Z,2.72
2022-10-07T07:05:14.947Z,3.15
2022-10-07T07:07:49.348Z,3.75
2022-10-07T07:10:22.318Z,4.10
2022-10-07T07:12:57.841Z,4.97
2022-10-07T07:15:30.686Z,4.65
2022-10-07T07:18:05.109Z,4.63
2022-10-07T07:20:38.674Z,4.82
2022-10-07T07:23:10.974Z,4.35
2022-10-07T07:25:45.154Z,4.88
2022-10-07T07:28:18.743Z,5.38
2022-10-07T07:30:51.215Z,5.63
2022-10-07T07:33:23.993Z,6.50
2022-10-07T07:35:56.857Z,6.28
2022-10-07T07:38:29.236Z,8.10
2022-10-07T07:41:04.535Z,8.45
2022-10-07T07:43:37.515Z,10.68
2022-10-07T07:46:11.905Z,10.27
2022-10-07T07:48:44.882Z,9.35
2022-10-07T07:51:18.310Z,8.57
2022-10-07T07:53:51.590Z,8.27
2022-10-07T07:56:25.094Z,6.32
2022-10-07T07:58:58.331Z,5.70
2022-10-07T08:01:31.213Z,5.28
2022-10-07T08:04:04.127Z,4.43
2022-10-07T08:06:39.672Z,5.22
2022-10-07T08:09:12.466Z,4.30
2022-10-07T08:11:46.690Z,4.05
2022-10-07T08:14:22.790Z,3.80
2022-10-07T08:16:58.470Z,3.97
2022-10-07T08:19:31.582Z,3.50
2022-10-07T08:22:06.432Z,3.47
2022-10-07T08:24:39.926Z,2.83
2022-10-07T08:27:12.482Z,3.00
2022-10-07T08:29:46.026Z,2.60
2022-10-07T08:32:18.443Z,2.72
2022-10-07T08:34:50.765Z,1.90
2022-10-07T08:37:23.104Z,2.75
2022-10-07T08:39:55.387Z,2.47
2022-10-07T08:42:34.241Z,1.80
2022-10-07T08:45:15.593Z,2.10
2022-10-07T08:47:50.857Z,2.30
2022-10-07T08:50:30.258Z,2.20
2022-10-07T08:53:07.753Z,2.10
2022-10-07T08:55:44.700Z,2.53
2022-10-07T08:58:39.448Z,2.42
2022-10-07T09:01:23.727Z,2.03
2022-10-07T09:04:05.961Z,2.50
2022-10-07T09:06:41.874Z,2.28
2022-10-07T09:09:19.432Z,2.17
2022-10-07T09:11:55.155Z,1.85
2022-10-07T09:14:29.144Z,1.65
2022-10-07T09:17:10.038Z,2.08
2022-10-07T09:19:46.547Z,1.83
2022-10-07T09:22:22.159Z,2.67
2022-10-07T09:25:09.025Z,2.17
2022-10-07T09:27:44.116Z,1.88
2022-10-07T09:30:17.255Z,1.92
2022-10-07T09:32:53.628Z,1.85
2022-10-07T09:35:30.860Z,1.63
2022-10-07T09:38:08.564Z,1.83
2022-10-07T09:40:58.498Z,1.52
2022-10-07T09:43:32.192Z,1.83
2022-10-07T09:46:04.732Z,2.42
2022-10-07T09:48:52.071Z,2.15
2022-10-07T09:51:26.401Z,2.55
2022-10-07T09:54:02.075Z,1.95
2022-10-07T09:56:40.594Z,2.33
2022-10-07T09:59:21.993Z,2.42
2022-10-07T10:01:56.475Z,1.95
2022-10-07T10:04:32.773Z,2.10
2022-10-07T10:07:15.713Z,2.35
2022-10-07T10:09:49.611Z,2.00
2022-10-07T10:12:24.115Z,1.92
2022-10-07T10:14:59.428Z,2.33
2022-10-07T10:17:38.753Z,2.05
2022-10-07T10:20:35.367Z,2.33
2022-10-07T10:23:26.416Z,2.38
2022-10-07T10:26:28.192Z,1.90
2022-10-07T10:29:17.107Z,1.80
2022-10-07T10:32:09.098Z,2.10
2022-10-07T10:34:50.129Z,1.95
2022-10-07T10:37:27.719Z,1.67
2022-10-07T10:40:07.423Z,2.65
2022-10-07T10:42:48.399Z,1.63
2022-10-07T10:45:34.517Z,1.80
2022-10-07T10:48:23.911Z,1.45
2022-10-07T10:51:05.875Z,2.53
2022-10-07T10:53:50.696Z,1.58
2022-10-07T10:56:36.123Z,1.38
2022-10-07T10:59:26.209Z,1.90
2022-10-07T11:02:17.587Z,2.00
2022-10-07T11:04:54.628Z,1.85
2022-10-07T11:07:32.740Z,2.55
2022-10-07T11:10:17.862Z,1.98
2022-10-07T11:12:56.162Z,1.73
2022-10-07T11:15:33.069Z,1.52
2022-10-07T11:18:11.594Z,1.70
2022-10-07T11:20:47.491Z,1.55
2022-10-07T11:23:25.051Z,2.00
2022-10-07T11:26:02.751Z,1.65
2022-10-07T11:28:39.546Z,1.80
2022-10-07T11:31:21.027Z,2.33
2022-10-07T11:34:06.656Z,1.80
2022-10-07T11:36:45.167Z,1.70
2022-10-07T11:39:17.770Z,2.50
2022-10-07T11:41:56.262Z,1.80
2022-10-07T11:44:32.733Z,1.73
2022-10-07T11:47:10.503Z,1.30
2022-10-07T11:49:55.195Z,1.70
2022-10-07T11:52:30.599Z,1.85
2022-10-07T11:55:06.514Z,1.85
2022-10-07T11:57:42.560Z,1.50
2022-10-07T12:00:24.717Z,1.35
2022-10-07T12:02:57.200Z,1.35
2022-10-07T12:06:11.438Z,1.40
2022-10-07T12:08:44.710Z,1.40
2022-10-07T12:11:46.153Z,1.40
2022-10-07T12:14:40.183Z,1.73
2022-10-07T12:17:22.491Z,1.75
2022-10-07T12:20:32.048Z,1.67
2022-10-07T12:23:35.735Z,1.55
2022-10-07T12:26:47.916Z,1.67
2022-10-07T12:29:39.532Z,2.80
2022-10-07T12:32:41.893Z,2.60
2022-10-07T12:35:40.451Z,1.60
2022-10-07T12:38:16.905Z,1.77
2022-10-07T12:40:59.379Z,1.48
2022-10-07T12:43:45.546Z,1.42
2022-10-07T12:46:21.224Z,1.50
2022-10-07T12:49:00.392Z,1.80
2022-10-07T12:51:38.031Z,1.60
2022-10-07T12:54:17.558Z,1.67
2022-10-07T12:56:50.291Z,1.98
2022-10-07T12:59:53.239Z,1.73
2022-10-07T13:03:22.435Z,1.33
2022-10-07T13:06:28.855Z,1.67
2022-10-07T13:09:26.629Z,1.80
2022-10-07T13:12:16.987Z,1.40
2022-10-07T13:14:59.418Z,1.65
2022-10-07T13:17:41.042Z,1.50
2022-10-07T13:20:32.154Z,1.13
2022-10-07T13:23:11.619Z,1.75
2022-10-07T13:28:21.623Z,1.30
2022-10-07T13:30:54.061Z,1.35
2022-10-07T13:33:29.566Z,1.27
2022-10-07T13:36:20.125Z,1.33
2022-10-07T13:39:10.395Z,1.40
2022-10-07T13:41:45.077Z,1.13
2022-10-07T13:44:19.722Z,1.10
2022-10-07T13:46:57.248Z,1.17
2022-10-07T13:49:34.619Z,1.10
2022-10-07T13:52:18.343Z,1.33
2022-10-07T13:54:52.471Z,1.55
2022-10-07T13:57:28.502Z,1.27
2022-10-07T14:00:01.065Z,1.15
2022-10-07T14:02:39.244Z,1.00
2022-10-07T14:05:19.961Z,1.45
2022-10-07T14:07:53.831Z,1.38
2022-10-07T14:10:29.421Z,1.40
2022-10-07T14:13:09.011Z,1.33
2022-10-07T14:15:47.336Z,9.00
2022-10-07T14:18:19.858Z,1.67
2022-10-07T14:20:54.460Z,1.10
2022-10-07T14:23:30.381Z,1.38
2022-10-07T14:26:05.579Z,1.15
2022-10-07T14:28:39.464Z,1.40
2022-10-07T14:31:37.123Z,1.55
2022-10-07T14:34:31.462Z,1.48
2022-10-07T14:37:05.502Z,1.20
2022-10-07T14:39:39.354Z,1.50
2022-10-07T14:42:15.337Z,1.38
2022-10-07T14:44:48.794Z,1.38
2022-10-07T14:47:23.764Z,1.58
2022-10-07T14:49:58.741Z,1.10
2022-10-07T14:52:35.253Z,1.27
2022-10-07T14:55:12.919Z,1.40
2022-10-07T14:57:47.426Z,1.27
2022-10-07T15:00:22.091Z,1.48
2022-10-07T15:02:54.392Z,1.67
2022-10-07T15:05:26.829Z,1.50
2022-10-07T15:07:59.528Z,1.60
2022-10-07T15:10:32.670Z,1.77
2022-10-07T15:13:08.611Z,1.67
2022-10-07T15:15:45.343Z,1.90
2022-10-07T15:18:17.688Z,1.58
2022-10-07T15:20:55.715Z,1.70
2022-10-07T15:23:29.436Z,1.60
2022-10-07T15:26:01.808Z,1.52
2022-10-07T15:28:34.865Z,1.90
2022-10-07T15:31:09.434Z,2.15
2022-10-07T15:33:41.979Z,2.10
2022-10-07T15:36:14.999Z,1.45
2022-10-07T15:38:47.294Z,1.90
2022-10-07T15:41:33.167Z,1.88
2022-10-07T15:44:12.011Z,2.00
2022-10-07T15:46:45.525Z,1.80
2022-10-07T15:49:17.836Z,2.05
2022-10-07T15:51:50.575Z,2.00
2022-10-07T15:54:24.380Z,1.92
2022-10-07T15:56:56.710Z,1.60
2022-10-07T15:59:29.680Z,1.10
2022-10-07T16:02:03.024Z,2.00
2022-10-07T16:04:35.328Z,1.60
2022-10-07T16:07:10.551Z,1.75
2022-10-07T16:09:42.863Z,1.63
2022-10-07T16:12:15.205Z,3.15
2022-10-07T16:14:48.386Z,6.07
2022-10-07T16:17:21.263Z,2.33
2022-10-07T16:19:53.543Z,1.60
2022-10-07T16:22:25.862Z,1.58
2022-10-07T16:24:58.177Z,2.35
2022-10-07T16:27:45.271Z,2.20
2022-10-07T16:30:36.433Z,1.70
2022-10-07T16:33:08.798Z,1.92
2022-10-07T16:35:41.563Z,1.70
2022-10-07T16:38:14.513Z,1.50
2022-10-07T16:40:53.960Z,1.92
2022-10-07T16:43:26.452Z,1.80
2022-10-07T16:46:01.950Z,2.13
2022-10-07T16:48:38.577Z,1.83
2022-10-07T16:51:11.830Z,1.58
2022-10-07T16:53:45.980Z,1.83
2022-10-07T16:56:20.240Z,1.58
2022-10-07T16:58:55.421Z,2.20
2022-10-07T17:01:29.472Z,1.80
2022-10-07T17:04:01.914Z,3.78
2022-10-07T17:06:34.687Z,2.65
2022-10-07T17:09:07.072Z,2.22
2022-10-07T17:11:40.031Z,2.42
2022-10-07T17:14:15.577Z,2.40
2022-10-07T17:16:49.919Z,1.60
2022-10-07T17:19:24.103Z,2.10
2022-10-07T17:21:58.532Z,1.80
2022-10-07T17:24:30.935Z,2.38
2022-10-07T17:27:03.419Z,1.73
2022-10-07T17:29:37.707Z,2.38
2022-10-07T17:32:10.722Z,2.03
2022-10-07T17:34:45.464Z,4.18
2022-10-07T17:37:17.990Z,2.78
2022-10-07T17:39:50.599Z,3.75
2022-10-07T17:42:23.020Z,4.55
2022-10-07T17:44:55.339Z,3.47
2022-10-07T17:47:28.365Z,2.97
2022-10-07T17:50:00.688Z,3.38
2022-10-07T17:52:32.970Z,4.20
2022-10-07T17:55:06.768Z,4.03
2022-10-07T17:57:39.470Z,4.97
2022-10-07T18:00:12.621Z,4.35
2022-10-07T18:02:49.484Z,4.15
2022-10-07T18:05:21.833Z,3.45
2022-10-07T18:07:54.255Z,3.88
2022-10-07T18:10:26.680Z,2.28
2022-10-07T18:13:19.119Z,3.00
2022-10-07T18:15:57.400Z,2.58
2022-10-07T18:18:31.105Z,3.42
2022-10-07T18:21:04.264Z,5.05
2022-10-07T18:23:37.651Z,3.40
2022-10-07T18:26:12.786Z,1.88
2022-10-07T18:28:46.000Z,2.47
2022-10-07T18:31:18.888Z,2.22
2022-10-07T18:33:51.934Z,2.38
2022-10-07T18:36:24.347Z,2.13
2022-10-07T18:38:57.107Z,1.98
2022-10-07T18:41:29.577Z,1.77
2022-10-07T18:44:01.894Z,1.73
2022-10-07T18:46:34.257Z,2.25
2022-10-07T18:49:08.662Z,1.67
2022-10-07T18:51:41.230Z,1.42
2022-10-07T18:54:13.763Z,1.58
2022-10-07T18:56:46.395Z,1.40
2022-10-07T18:59:19.570Z,1.67
2022-10-07T19:01:52.008Z,1.75
2022-10-07T19:04:25.218Z,2.10
2022-10-07T19:06:57.595Z,5.93
2022-10-07T19:09:32.875Z,2.50
2022-10-07T19:12:25.990Z,1.58
2022-10-07T19:14:57.972Z,1.67
2022-10-07T19:17:31.713Z,1.73
2022-10-07T19:20:05.436Z,2.03
2022-10-07T19:22:37.767Z,1.83
2022-10-07T19:25:28.291Z,2.60
2022-10-07T19:28:00.791Z,2.33
2022-10-07T19:30:33.175Z,2.10
2022-10-07T19:33:05.560Z,1.80
2022-10-07T19:35:38.882Z,1.67
2022-10-07T19:38:11.728Z,1.17
2022-10-07T19:40:44.403Z,1.65
2022-10-07T19:43:16.966Z,1.67
2022-10-07T19:45:50.547Z,1.92
2022-10-07T19:48:22.928Z,1.42
2022-10-07T19:50:59.786Z,1.30
2022-10-07T19:53:33.434Z,4.50
2022-10-07T19:56:11.991Z,2.25
2022-10-07T19:58:47.091Z,3.38
2022-10-07T20:01:21.443Z,2.95
2022-10-07T20:03:56.690Z,2.45
2022-10-07T20:06:29.879Z,2.80
2022-10-07T20:09:03.530Z,2.35
2022-10-07T20:11:35.941Z,2.75
2022-10-07T20:14:09.350Z,2.45
2022-10-07T20:16:42.310Z,2.22
2022-10-07T20:19:17.850Z,2.65
2022-10-07T20:21:50.813Z,2.30
2022-10-07T20:24:23.140Z,2.35
2022-10-07T20:26:55.440Z,2.40
2022-10-07T20:29:27.780Z,3.08
2022-10-07T20:32:00.162Z,2.78
2022-10-07T20:34:32.670Z,2.03
2022-10-07T20:37:05.648Z,2.88
2022-10-07T20:39:58.390Z,2.85
2022-10-07T20:42:32.341Z,3.17
2022-10-07T20:45:05.668Z,2.95
2022-10-07T20:47:38.026Z,2.38
2022-10-07T20:50:11.047Z,2.35
2022-10-07T20:52:44.840Z,2.70
2022-10-07T20:55:17.441Z,3.25
2022-10-07T20:57:50.506Z,3.10
2022-10-07T21:00:22.855Z,2.83
2022-10-07T21:02:55.307Z,2.65
2022-10-07T21:05:28.698Z,4.40
2022-10-07T21:08:01.692Z,3.03
2022-10-07T21:10:34.019Z,3.70
2022-10-07T21:13:06.382Z,5.93
2022-10-07T21:15:38.774Z,5.78
2022-10-07T21:18:11.074Z,3.78
2022-10-07T21:20:55.534Z,3.47
2022-10-07T21:23:30.305Z,3.60
2022-10-07T21:26:03.318Z,4.35
2022-10-07T21:28:39.125Z,4.03
2022-10-07T21:31:16.610Z,3.45
2022-10-07T21:33:50.008Z,3.60
2022-10-07T21:36:23.540Z,3.22
2022-10-07T21:38:58.270Z,3.33
2022-10-07T21:41:33.578Z,2.65
2022-10-07T21:44:09.179Z,2.55
2022-10-07T21:46:43.173Z,3.13
2022-10-07T21:49:16.394Z,2.25
2022-10-07T21:51:48.709Z,2.15
2022-10-07T21:54:21.685Z,2.40
2022-10-07T21:56:54.049Z,2.30
2022-10-07T21:59:26.359Z,2.53
2022-10-07T22:01:58.685Z,2.65
2022-10-07T22:04:31.068Z,2.10
2022-10-07T22:07:21.658Z,2.15
2022-10-07T22:09:54.611Z,4.63
2022-10-07T22:12:26.963Z,2.97
2022-10-07T22:14:59.605Z,2.50
2022-10-07T22:17:34.058Z,3.00
2022-10-07T22:20:08.808Z,2.45
2022-10-07T22:22:41.600Z,2.25
2022-10-07T22:25:14.719Z,3.15
2022-10-07T22:27:48.071Z,4.38
2022-10-07T22:30:20.846Z,3.72
2022-10-07T22:32:53.298Z,3.05
2022-10-07T22:35:29.613Z,3.20
2022-10-07T22:38:02.056Z,2.72
2022-10-07T22:40:37.579Z,2.53
2022-10-07T22:43:09.943Z,1.80
2022-10-07T22:45:42.621Z,1.70
2022-10-07T22:48:15.298Z,1.90
2022-10-07T22:50:47.642Z,2.17
2022-10-07T22:53:20.227Z,2.22
2022-10-07T22:55:53.166Z,2.45
2022-10-07T22:58:25.488Z,2.78
2022-10-07T23:01:02.688Z,2.30
2022-10-07T23:03:37.711Z,2.88
2022-10-07T23:06:12.269Z,2.00
2022-10-07T23:08:46.128Z,2.13
2022-10-07T23:11:21.506Z,2.08
2022-10-07T23:13:54.724Z,3.08
2022-10-07T23:16:29.744Z,2.40
2022-10-07T23:19:02.226Z,2.42
2022-10-07T23:21:34.579Z,3.53
2022-10-07T23:24:09.132Z,3.63
2022-10-07T23:26:43.076Z,6.15
2022-10-07T23:29:15.602Z,4.45
2022-10-07T23:31:48.435Z,3.33
2022-10-07T23:34:20.813Z,3.10
2022-10-07T23:36:54.568Z,3.85
2022-10-07T23:39:27.093Z,4.20
2022-10-07T23:42:00.086Z,4.25
2022-10-07T23:44:32.451Z,4.53
2022-10-07T23:47:05.375Z,3.55
2022-10-07T23:49:37.805Z,5.15
2022-10-07T23:52:10.110Z,4.13
2022-10-07T23:54:42.443Z,5.47
2022-10-07T23:57:15.443Z,5.05
2022-10-07T23:59:47.760Z,7.22
